Time;durP1;ratioP1;P1;durP2;ratioP2;P2;SDS_P1;SDS_P2;PMS_P1;PMS_P2;Temp;Humidity;BMP_temperature;BMP_pressure;BME280_temperature;BME280_humidity;BME280_pressure;Samples;Min_cycle;Max_cycle;Signal;HPM_P1;HPM_P2
2023/01/29 00:01:04;;;;;;;11.98;8.63;;;;;;;2.02;100.00;103106.91;5116023;28;20098;-74
2023/01/29 00:03:30;;;;;;;12.45;8.63;;;;;;;2.02;100.00;103108.69;5116607;28;20039;-74
2023/01/29 00:05:55;;;;;;;12.68;8.57;;;;;;;2.02;100.00;103103.44;5116539;28;20511;-74
2023/01/29 00:08:21;;;;;;;15.15;8.68;;;;;;;2.02;100.00;103109.53;5117079;28;20453;-73
2023/01/29 00:10:46;;;;;;;15.20;8.18;;;;;;;2.03;100.00;103108.66;5115939;28;20032;-74
2023/01/29 00:13:12;;;;;;;13.55;8.57;;;;;;;2.03;100.00;103102.50;5116020;28;20150;-74
2023/01/29 00:15:37;;;;;;;15.38;8.25;;;;;;;2.04;100.00;103104.25;5116270;28;20065;-73
2023/01/29 00:18:03;;;;;;;12.32;8.48;;;;;;;2.05;100.00;103103.38;5116058;28;20038;-73
2023/01/29 00:20:29;;;;;;;19.02;8.38;;;;;;;2.06;100.00;103103.34;5115817;28;20576;-73
2023/01/29 00:22:55;;;;;;;20.85;9.32;;;;;;;2.07;100.00;103105.06;5116357;28;20444;-74
2023/01/29 00:25:20;;;;;;;12.63;8.57;;;;;;;2.09;100.00;103102.41;5116588;28;20067;-74
2023/01/29 00:27:46;;;;;;;13.63;9.13;;;;;;;2.13;100.00;103100.59;5115705;28;20080;-74
2023/01/29 00:30:12;;;;;;;14.52;8.85;;;;;;;2.13;100.00;103101.44;5115209;28;20031;-74
2023/01/29 00:32:40;;;;;;;12.45;8.15;;;;;;;2.14;100.00;103097.09;5115287;28;20051;-74
2023/01/29 00:35:07;;;;;;;11.98;8.48;;;;;;;2.11;100.00;103092.75;5116112;28;20423;-74
2023/01/29 00:37:32;;;;;;;15.63;8.85;;;;;;;2.09;100.00;103090.16;5114681;28;20042;-73
2023/01/29 00:39:58;;;;;;;15.27;9.13;;;;;;;2.08;100.00;103082.31;5114877;28;20091;-74
2023/01/29 00:45:09;;;;;;;13.65;8.05;;;;;;;2.08;100.00;103075.28;5116118;28;20059;-74
2023/01/29 00:47:34;;;;;;;13.00;8.70;;;;;;;2.07;100.00;103067.44;5115715;28;20031;-73
2023/01/29 00:50:03;;;;;;;16.40;9.48;;;;;;;2.07;100.00;103067.44;5114720;28;20032;-73
2023/01/29 00:52:28;;;;;;;13.32;9.05;;;;;;;2.09;100.00;103063.88;5115705;28;20027;-74
2023/01/29 00:54:56;;;;;;;13.55;9.57;;;;;;;2.07;100.00;103063.03;5116005;28;20038;-74
2023/01/29 00:57:23;;;;;;;12.40;9.38;;;;;;;2.05;100.00;103059.59;5115971;27;20028;-74
2023/01/29 00:59:49;;;;;;;17.02;9.52;;;;;;;2.05;100.00;103058.72;5117523;28;20032;-74
2023/01/29 01:04:58;;;;;;;15.50;10.10;;;;;;;2.02;100.00;103058.78;5117710;28;20046;-74
2023/01/29 01:07:24;;;;;;;13.73;8.75;;;;;;;2.05;100.00;103059.59;5116935;28;20032;-74
2023/01/29 01:12:33;;;;;;;13.88;9.40;;;;;;;2.05;100.00;103064.84;5118353;28;20148;-74
2023/01/29 01:14:58;;;;;;;14.18;10.18;;;;;;;2.06;100.00;103066.56;5118372;28;20031;-74
2023/01/29 01:17:24;;;;;;;12.27;8.77;;;;;;;2.06;100.00;103065.69;5118078;28;20028;-73
2023/01/29 01:19:50;;;;;;;19.58;9.35;;;;;;;2.04;100.00;103064.88;5117622;28;20032;-73
2023/01/29 01:22:15;;;;;;;16.25;10.02;;;;;;;2.09;100.00;103065.63;5117720;28;20036;-74
2023/01/29 01:24:41;;;;;;;17.65;11.25;;;;;;;2.09;100.00;103068.25;5117182;28;20027;-73
2023/01/29 01:27:06;;;;;;;15.77;10.00;;;;;;;2.08;100.00;103062.16;5117557;28;20039;-73
2023/01/29 01:29:32;;;;;;;12.25;9.40;;;;;;;2.12;100.00;103078.72;5115690;28;20031;-74
2023/01/29 01:31:58;;;;;;;19.30;10.65;;;;;;;2.12;100.00;103070.84;5114435;28;20031;-74
2023/01/29 01:34:25;;;;;;;17.65;9.68;;;;;;;2.13;100.00;103079.59;5114482;28;20031;-74
2023/01/29 01:36:52;;;;;;;15.13;9.98;;;;;;;2.11;100.00;103075.22;5113514;28;20392;-73
2023/01/29 01:39:17;;;;;;;17.85;10.15;;;;;;;2.11;100.00;103077.00;5114002;28;20088;-74
2023/01/29 01:41:42;;;;;;;15.05;10.10;;;;;;;2.10;100.00;103080.50;5113083;28;20065;-73
2023/01/29 01:44:46;;;;;;;14.80;9.93;;;;;;;2.09;100.00;103077.03;5113745;28;20046;-74
2023/01/29 01:47:12;;;;;;;16.95;10.70;;;;;;;2.09;100.00;103074.41;5111966;28;20380;-74
2023/01/29 01:49:39;;;;;;;16.70;10.38;;;;;;;2.11;100.00;103075.22;5113928;28;20042;-74
2023/01/29 01:52:05;;;;;;;15.15;9.98;;;;;;;2.14;100.00;103074.31;5112775;28;20059;-75
2023/01/29 01:54:31;;;;;;;14.00;10.07;;;;;;;2.15;100.00;103078.66;5113502;28;20383;-73
2023/01/29 01:57:15;;;;;;;17.13;11.05;;;;;;;2.14;100.00;103063.78;5113725;28;20471;-74
2023/01/29 01:59:47;;;;;;;20.85;11.50;;;;;;;2.13;100.00;103071.72;5114062;28;20054;-73
2023/01/29 02:10:50;;;;;;;18.33;11.80;;;;;;;2.10;100.00;103054.25;5114155;28;20038;-74
2023/01/29 02:13:17;;;;;;;16.83;11.43;;;;;;;2.14;100.00;103049.81;5113142;27;20050;-74
2023/01/29 02:15:47;;;;;;;18.38;12.25;;;;;;;2.13;100.00;103045.44;5113476;28;20028;-74
2023/01/29 02:18:18;;;;;;;20.48;12.63;;;;;;;2.10;100.00;103052.47;5113195;28;20027;-74
2023/01/29 02:21:14;;;;;;;19.48;12.27;;;;;;;2.11;100.00;103058.59;5113789;28;20039;-74
2023/01/29 02:24:10;;;;;;;18.58;12.30;;;;;;;2.10;100.00;103067.38;5113429;28;20440;-74
2023/01/29 02:27:09;;;;;;;20.58;13.05;;;;;;;2.09;100.00;103061.25;5113689;28;20108;-74
2023/01/29 02:29:53;;;;;;;20.77;13.20;;;;;;;2.13;100.00;103056.81;5113363;28;20015;-74
2023/01/29 02:32:29;;;;;;;19.60;13.63;;;;;;;2.16;100.00;103063.75;5111742;28;20131;-74
2023/01/29 02:35:27;;;;;;;19.25;13.30;;;;;;;2.14;100.00;103053.28;5114098;28;20356;-74
2023/01/29 02:38:19;;;;;;;22.00;13.45;;;;;;;2.13;100.00;103069.94;5111927;28;20031;-74
2023/01/29 02:41:14;;;;;;;22.63;13.82;;;;;;;2.14;100.00;103073.44;5104065;28;20047;-73
2023/01/29 02:43:42;;;;;;;23.90;13.93;;;;;;;2.11;100.00;103058.59;5103208;28;20079;-73
2023/01/29 02:46:26;;;;;;;21.85;14.27;;;;;;;2.10;100.00;103057.72;5112856;28;20028;-73
2023/01/29 02:48:58;;;;;;;25.05;15.15;;;;;;;2.10;100.00;103052.47;5113174;28;20046;-73
2023/01/29 02:51:40;;;;;;;27.20;15.30;;;;;;;2.08;100.00;103048.16;5113077;28;20478;-73
2023/01/29 02:54:13;;;;;;;25.27;14.75;;;;;;;2.07;100.00;103049.91;5115312;28;20028;-73
2023/01/29 02:56:49;;;;;;;27.98;14.98;;;;;;;2.05;100.00;103046.44;5116805;28;20032;-73
2023/01/29 02:59:22;;;;;;;25.13;15.30;;;;;;;2.06;100.00;103048.19;5117412;28;20032;-73
2023/01/29 03:01:53;;;;;;;25.92;15.20;;;;;;;2.06;100.00;103039.44;5117151;28;20028;-74
2023/01/29 03:04:24;;;;;;;26.60;14.88;;;;;;;2.05;100.00;103046.44;5116431;28;20034;-74
2023/01/29 03:07:39;;;;;;;23.63;14.50;;;;;;;2.08;100.00;103043.75;5117138;28;20054;-74
2023/01/29 03:10:05;;;;;;;23.05;15.00;;;;;;;2.09;100.00;103037.63;5116532;28;20092;-74
2023/01/29 03:12:34;;;;;;;22.75;14.63;;;;;;;2.09;100.00;103034.13;5115400;28;20081;-74
2023/01/29 03:15:11;;;;;;;25.15;14.90;;;;;;;2.11;100.00;103037.59;5116645;28;20059;-74
2023/01/29 03:18:03;;;;;;;25.80;14.73;;;;;;;2.09;100.00;103032.38;5116831;28;20032;-74
2023/01/29 03:20:34;;;;;;;26.75;14.55;;;;;;;2.09;100.00;103031.47;5115630;28;20024;-74
2023/01/29 03:23:06;;;;;;;22.55;13.60;;;;;;;2.08;100.00;103027.16;5116570;28;20027;-74
2023/01/29 03:34:37;;;;;;;19.00;12.77;;;;;;;2.11;100.00;103024.47;5116278;28;20085;-74
2023/01/29 03:37:09;;;;;;;22.35;13.32;;;;;;;2.10;100.00;103026.19;5033171;28;20038;-74
2023/01/29 03:39:35;;;;;;;20.83;12.05;;;;;;;2.09;100.00;103028.84;5104819;28;20112;-74
2023/01/29 03:42:21;;;;;;;19.92;12.52;;;;;;;2.09;100.00;103031.47;5115722;28;20039;-74
2023/01/29 03:44:52;;;;;;;19.23;12.55;;;;;;;2.09;100.00;103027.13;5116121;28;20149;-73
2023/01/29 03:47:23;;;;;;;21.77;12.60;;;;;;;2.08;100.00;103017.50;5115583;28;20038;-74
2023/01/29 03:50:04;;;;;;;20.73;12.68;;;;;;;2.11;100.00;103013.97;5115964;28;20023;-74
2023/01/29 03:53:09;;;;;;;19.75;12.43;;;;;;;2.13;100.00;103006.03;5115457;28;20352;-74
2023/01/29 03:55:38;;;;;;;19.55;12.05;;;;;;;2.13;100.00;102998.16;5116382;28;20110;-74
2023/01/29 03:58:42;;;;;;;17.30;11.95;;;;;;;2.14;100.00;102997.28;5115512;28;20369;-74
2023/01/29 04:01:35;;;;;;;19.45;11.40;;;;;;;2.15;100.00;103004.25;5086023;27;20035;-74
2023/01/29 04:04:17;;;;;;;19.83;12.18;;;;;;;2.17;100.00;103002.47;5115462;27;20032;-74
2023/01/29 04:06:45;;;;;;;20.10;12.50;;;;;;;2.15;100.00;103005.13;5115270;28;20043;-74
2023/01/29 04:09:14;;;;;;;22.45;12.77;;;;;;;2.15;100.00;103001.63;5115224;28;20102;-72
2023/01/29 04:11:46;;;;;;;20.58;12.18;;;;;;;2.16;100.00;103000.72;5115428;28;20023;-73
2023/01/29 04:14:14;;;;;;;21.58;12.45;;;;;;;2.24;100.00;102996.16;5115883;28;20072;-74
2023/01/29 04:16:47;;;;;;;20.70;12.52;;;;;;;2.24;100.00;102998.78;5115539;28;20419;-74
2023/01/29 04:19:13;;;;;;;23.00;13.10;;;;;;;2.23;100.00;102987.44;5114995;28;20039;-74
2023/01/29 04:21:39;;;;;;;19.90;12.32;;;;;;;2.25;100.00;102983.00;5115291;28;20388;-73
2023/01/29 04:24:07;;;;;;;22.05;12.13;;;;;;;2.25;100.00;102974.25;5115465;28;20035;-74
2023/01/29 04:27:19;;;;;;;19.25;12.52;;;;;;;2.24;100.00;102980.41;5115337;27;20095;-73
2023/01/29 04:30:09;;;;;;;21.40;12.27;;;;;;;2.25;100.00;102985.63;5084330;28;20104;-74
2023/01/29 04:32:59;;;;;;;21.63;13.00;;;;;;;2.21;100.00;102973.47;5115097;28;20032;-74
2023/01/29 04:35:30;;;;;;;19.95;11.57;;;;;;;2.19;100.00;102972.63;5114962;28;20378;-74
2023/01/29 04:38:24;;;;;;;23.85;12.32;;;;;;;2.19;100.00;102961.25;5115491;28;20089;-74
2023/01/29 04:40:59;;;;;;;16.95;11.68;;;;;;;2.19;100.00;102959.50;5115182;28;20059;-74
2023/01/29 04:43:37;;;;;;;22.90;11.63;;;;;;;2.19;100.00;102958.63;5113335;28;20062;-74
2023/01/29 04:46:21;;;;;;;17.15;12.63;;;;;;;2.23;100.00;102955.06;5113127;28;20027;-73
2023/01/29 04:48:52;;;;;;;20.42;12.65;;;;;;;2.23;100.00;102952.44;5115357;28;20066;-73
2023/01/29 04:51:20;;;;;;;22.40;13.25;;;;;;;2.20;100.00;102948.09;5114548;28;20460;-74
2023/01/29 04:54:09;;;;;;;23.17;12.60;;;;;;;2.18;100.00;102947.28;5114381;28;20391;-73
2023/01/29 04:56:47;;;;;;;24.58;13.35;;;;;;;2.18;100.00;102949.91;5114566;27;20029;-74
2023/01/29 04:59:20;;;;;;;19.58;13.10;;;;;;;2.17;100.00;102945.53;5115427;28;20038;-73
2023/01/29 05:01:47;;;;;;;20.70;14.15;;;;;;;2.17;100.00;102953.41;5114515;28;20126;-73
2023/01/29 05:04:17;;;;;;;21.25;13.48;;;;;;;2.17;100.00;102952.56;5114094;28;20073;-73
2023/01/29 05:06:46;;;;;;;20.50;13.13;;;;;;;2.19;100.00;102945.50;5115082;28;20070;-73
2023/01/29 05:09:15;;;;;;;21.13;13.85;;;;;;;2.19;100.00;102942.88;5114675;28;20428;-74
2023/01/29 05:11:42;;;;;;;22.70;13.25;;;;;;;2.20;100.00;102947.25;5114216;28;20416;-73
2023/01/29 05:14:12;;;;;;;24.48;14.27;;;;;;;2.19;100.00;102945.50;5114830;28;20027;-73
2023/01/29 05:16:42;;;;;;;21.17;13.77;;;;;;;2.18;100.00;102944.66;5114234;28;20131;-73
2023/01/29 05:19:10;;;;;;;19.30;13.20;;;;;;;2.21;100.00;102938.44;5114461;28;20051;-73
2023/01/29 05:21:36;;;;;;;20.92;12.95;;;;;;;2.22;100.00;102934.94;5114093;28;20150;-73
2023/01/29 05:24:14;;;;;;;22.67;13.85;;;;;;;2.23;100.00;102923.53;5113899;28;20480;-73
2023/01/29 05:29:29;;;;;;;21.55;13.60;;;;;;;2.21;100.00;102917.44;5114032;28;20050;-74
2023/01/29 05:31:55;;;;;;;25.05;14.77;;;;;;;2.23;100.00;102913.03;5114159;27;20032;-73
2023/01/29 05:34:21;;;;;;;21.88;13.65;;;;;;;2.23;100.00;102913.88;5114024;28;20128;-73
2023/01/29 05:36:46;;;;;;;22.48;14.60;;;;;;;2.23;100.00;102913.88;5113974;28;20383;-73
2023/01/29 05:39:12;;;;;;;23.23;14.35;;;;;;;2.23;100.00;102908.63;5113553;28;20031;-74
2023/01/29 05:41:37;;;;;;;26.08;14.32;;;;;;;2.24;100.00;102912.09;5113458;28;20034;-74
2023/01/29 05:44:03;;;;;;;26.88;14.43;;;;;;;2.26;100.00;102908.56;5113776;28;20506;-74
2023/01/29 05:46:28;;;;;;;22.40;13.45;;;;;;;2.28;100.00;102919.91;5113852;28;20054;-74
2023/01/29 05:48:54;;;;;;;22.23;14.43;;;;;;;2.28;100.00;102913.78;5114340;28;20059;-75
2023/01/29 05:51:19;;;;;;;22.38;14.63;;;;;;;2.31;100.00;102921.56;5113822;28;20034;-74
2023/01/29 05:53:45;;;;;;;23.48;13.55;;;;;;;2.30;100.00;102919.88;5113685;28;20561;-74
2023/01/29 05:56:10;;;;;;;23.38;14.57;;;;;;;2.29;100.00;102919.00;5114008;28;20023;-74
2023/01/29 05:58:36;;;;;;;21.88;14.35;;;;;;;2.31;100.00;102929.47;5111800;28;20038;-74
2023/01/29 06:01:16;;;;;;;23.52;14.75;;;;;;;2.32;100.00;102925.94;5112983;28;20085;-73
2023/01/29 06:03:42;;;;;;;24.88;14.77;;;;;;;2.31;100.00;102918.94;5113307;28;20027;-74
2023/01/29 06:06:08;;;;;;;24.25;15.07;;;;;;;2.31;100.00;102905.81;5113183;28;20111;-75
2023/01/29 06:08:33;;;;;;;26.88;14.10;;;;;;;2.31;100.00;102923.34;5112853;28;20039;-74
2023/01/29 06:10:59;;;;;;;26.02;14.60;;;;;;;2.31;100.00;102913.69;5111846;28;20059;-74
2023/01/29 06:13:24;;;;;;;21.65;15.10;;;;;;;2.30;100.00;102909.38;5113281;28;20035;-75
2023/01/29 06:15:50;;;;;;;28.40;15.52;;;;;;;2.33;100.00;102911.91;5113571;28;20435;-75
2023/01/29 06:18:15;;;;;;;23.92;15.20;;;;;;;2.32;100.00;102898.81;5113357;28;20032;-75
2023/01/29 06:20:41;;;;;;;32.50;14.93;;;;;;;2.33;100.00;102896.16;5113299;28;20042;-75
2023/01/29 06:23:06;;;;;;;22.05;15.10;;;;;;;2.34;100.00;102891.75;5112015;28;20077;-75
2023/01/29 06:25:31;;;;;;;23.10;14.95;;;;;;;2.34;100.00;102889.13;5113325;28;20023;-75
2023/01/29 06:27:57;;;;;;;21.45;14.75;;;;;;;2.34;100.00;102883.88;5112610;28;20032;-75
2023/01/29 06:30:22;;;;;;;29.45;15.85;;;;;;;2.33;100.00;102898.78;5117203;28;20131;-76
2023/01/29 06:32:47;;;;;;;23.15;15.15;;;;;;;2.37;100.00;102905.66;5117282;28;20044;-75
2023/01/29 06:35:13;;;;;;;27.90;15.90;;;;;;;2.37;100.00;102894.31;5116976;28;20073;-75
2023/01/29 06:37:38;;;;;;;22.58;15.60;;;;;;;2.38;100.00;102899.53;5116685;28;20032;-75
2023/01/29 06:40:04;;;;;;;20.75;14.10;;;;;;;2.40;100.00;102892.47;5117424;28;20028;-75
2023/01/29 06:42:29;;;;;;;25.23;15.50;;;;;;;2.40;100.00;102878.47;5116698;28;20024;-75
2023/01/29 06:44:56;;;;;;;22.10;14.23;;;;;;;2.39;100.00;102880.25;5117267;28;20065;-75
2023/01/29 06:47:23;;;;;;;22.77;14.98;;;;;;;2.41;100.00;102882.84;5116792;27;20035;-74
2023/01/29 06:49:48;;;;;;;24.83;15.02;;;;;;;2.40;100.00;102871.44;5116352;28;20360;-75
2023/01/29 06:52:14;;;;;;;24.75;15.40;;;;;;;2.40;100.00;102876.69;5116544;28;20039;-74
2023/01/29 06:54:39;;;;;;;26.20;15.43;;;;;;;2.42;100.00;102876.69;5116690;28;20114;-73
2023/01/29 06:57:05;;;;;;;25.75;15.77;;;;;;;2.42;100.00;102874.06;5116377;28;20467;-74
2023/01/29 06:59:30;;;;;;;24.48;15.02;;;;;;;2.40;100.00;102873.22;5117072;28;20115;-74
2023/01/29 07:01:56;;;;;;;27.63;15.82;;;;;;;2.39;100.00;102880.25;5116566;28;20383;-75
2023/01/29 07:04:21;;;;;;;23.77;16.02;;;;;;;2.36;100.00;102877.69;5116762;28;20035;-74
2023/01/29 07:06:47;;;;;;;23.88;15.63;;;;;;;2.40;100.00;102876.69;5115430;28;20024;-74
2023/01/29 07:09:12;;;;;;;21.98;15.10;;;;;;;2.40;100.00;102876.69;5116224;28;20529;-74
2023/01/29 07:11:38;;;;;;;24.52;15.63;;;;;;;2.41;100.00;102882.84;5116504;28;20031;-75
2023/01/29 07:14:04;;;;;;;28.58;15.88;;;;;;;2.40;100.00;102879.31;5116463;28;20038;-74
2023/01/29 07:16:30;;;;;;;24.95;16.60;;;;;;;2.41;100.00;102882.84;5116403;28;20059;-74
2023/01/29 07:18:55;;;;;;;21.88;14.95;;;;;;;2.42;100.00;102884.56;5115888;28;20035;-74
2023/01/29 07:21:21;;;;;;;23.67;15.30;;;;;;;2.46;100.00;102889.72;5116062;28;20039;-74
2023/01/29 07:23:46;;;;;;;25.27;15.85;;;;;;;2.43;100.00;102895.03;5116516;28;20027;-74
2023/01/29 07:26:11;;;;;;;25.20;16.95;;;;;;;2.43;100.00;102892.41;5116257;28;20480;-73
2023/01/29 07:28:38;;;;;;;26.58;16.95;;;;;;;2.43;100.00;102895.03;5116065;28;20409;-73
2023/01/29 07:31:04;;;;;;;23.70;15.80;;;;;;;2.45;100.00;102890.59;5115825;28;20051;-74
2023/01/29 07:33:30;;;;;;;27.13;15.38;;;;;;;2.46;100.00;102889.72;5116345;28;20031;-74
2023/01/29 07:35:55;;;;;;;22.70;15.32;;;;;;;2.51;100.00;102886.97;5115585;28;20040;-74
2023/01/29 07:38:21;;;;;;;23.17;15.65;;;;;;;2.52;100.00;102882.56;5114557;28;20456;-74
2023/01/29 07:40:46;;;;;;;26.23;16.08;;;;;;;2.52;100.00;102875.53;5113343;28;20131;-73
2023/01/29 07:43:12;;;;;;;23.77;16.42;;;;;;;2.54;100.00;102875.50;5115429;27;20118;-74
2023/01/29 07:45:38;;;;;;;29.90;16.63;;;;;;;2.55;100.00;102879.88;5116278;28;20052;-74
2023/01/29 07:48:06;;;;;;;24.60;16.85;;;;;;;2.56;100.00;102876.34;5116021;28;20047;-74
2023/01/29 07:50:33;;;;;;;32.45;17.40;;;;;;;2.54;100.00;102873.75;5115486;28;20472;-74
2023/01/29 07:52:58;;;;;;;26.50;17.02;;;;;;;2.54;100.00;102865.88;5115674;28;20038;-74
2023/01/29 07:55:24;;;;;;;30.20;16.92;;;;;;;2.55;100.00;102872.84;5115966;28;20379;-74
2023/01/29 07:57:56;;;;;;;31.15;16.70;;;;;;;2.58;100.00;102877.16;5114205;28;20114;-74
2023/01/29 08:00:22;;;;;;;27.20;16.08;;;;;;;2.59;100.00;102873.66;5115536;28;20471;-74
2023/01/29 08:02:47;;;;;;;30.55;17.15;;;;;;;2.61;100.00;102869.19;5115308;28;20034;-74
2023/01/29 08:05:12;;;;;;;30.13;17.85;;;;;;;2.63;100.00;102867.41;5113889;28;20031;-74
2023/01/29 08:07:38;;;;;;;25.90;16.00;;;;;;;2.63;100.00;102864.78;5115655;28;20032;-74
2023/01/29 08:10:04;;;;;;;27.95;16.88;;;;;;;2.60;100.00;102860.47;5115103;28;20492;-73
2023/01/29 08:12:29;;;;;;;30.23;17.65;;;;;;;2.61;100.00;102864.81;5115069;28;20046;-75
2023/01/29 08:14:55;;;;;;;30.42;18.15;;;;;;;2.59;100.00;102858.72;5113992;28;20092;-73
2023/01/29 08:17:20;;;;;;;30.92;17.85;;;;;;;2.61;100.00;102858.69;5115663;28;20336;-75
2023/01/29 08:19:45;;;;;;;30.67;17.65;;;;;;;2.63;100.00;102855.13;5115113;28;20114;-74
2023/01/29 08:22:11;;;;;;;35.97;17.70;;;;;;;2.67;100.00;102849.78;5113688;28;20028;-75
2023/01/29 08:24:36;;;;;;;31.52;18.45;;;;;;;2.68;100.00;102844.50;5114931;28;20042;-75
2023/01/29 08:27:02;;;;;;;28.63;18.52;;;;;;;2.74;100.00;102848.75;5115039;28;20031;-74
2023/01/29 08:29:27;;;;;;;32.97;17.95;;;;;;;2.77;100.00;102840.78;5097098;28;20494;-74
2023/01/29 08:31:53;;;;;;;29.30;17.38;;;;;;;2.78;100.00;102847.78;5115028;28;20104;-74
2023/01/29 08:34:18;;;;;;;31.20;18.40;;;;;;;2.78;100.00;102846.00;5114729;28;20042;-74
2023/01/29 08:36:44;;;;;;;28.77;17.15;;;;;;;2.80;100.00;102840.69;5114478;28;20028;-74
2023/01/29 08:39:09;;;;;;;29.90;17.10;;;;;;;2.83;100.00;102841.47;5113748;28;20053;-76
2023/01/29 08:41:35;;;;;;;30.83;17.77;;;;;;;2.87;100.00;102836.16;5115004;28;20115;-74
2023/01/29 08:44:03;;;;;;;28.90;17.63;;;;;;;2.90;100.00;102838.69;5113093;28;20529;-77
2023/01/29 08:46:29;;;;;;;28.90;18.08;;;;;;;2.95;100.00;102832.38;5114596;28;20042;-78
2023/01/29 08:48:54;;;;;;;30.42;18.52;;;;;;;3.03;100.00;102831.31;5114968;28;20035;-76
2023/01/29 08:51:20;;;;;;;29.98;18.77;;;;;;;3.05;100.00;102835.66;5114302;28;20473;-72
2023/01/29 08:53:46;;;;;;;33.25;17.95;;;;;;;3.08;100.00;102830.31;5114342;28;20036;-74
2023/01/29 08:56:11;;;;;;;28.58;17.40;;;;;;;3.14;100.00;102830.13;5114191;28;20470;-73
2023/01/29 08:58:37;;;;;;;29.30;18.02;;;;;;;3.17;100.00;102834.47;5112714;28;20028;-72
2023/01/29 09:01:10;;;;;;;28.23;18.50;;;;;;;3.17;100.00;102829.19;5114229;28;20051;-71
2023/01/29 09:03:36;;;;;;;33.33;18.52;;;;;;;3.18;100.00;102826.53;5113753;28;20380;-73
2023/01/29 09:06:02;;;;;;;30.45;17.98;;;;;;;3.20;100.00;102823.84;5113631;28;20099;-71
2023/01/29 09:08:27;;;;;;;32.33;18.33;;;;;;;3.20;100.00;102818.59;5113972;28;20044;-73
2023/01/29 09:10:53;;;;;;;29.48;18.05;;;;;;;3.25;100.00;102821.09;5113564;28;20065;-72
2023/01/29 09:13:18;;;;;;;30.92;19.33;;;;;;;3.28;100.00;102819.22;5113499;28;20038;-73
2023/01/29 09:15:44;;;;;;;31.42;18.48;;;;;;;3.30;100.00;102822.69;5113498;28;20030;-71
2023/01/29 09:18:09;;;;;;;29.40;18.60;;;;;;;3.29;100.00;102809.56;5113434;28;20055;-71
2023/01/29 09:20:37;;;;;;;33.92;18.83;;;;;;;3.31;100.00;102821.78;5113606;28;20028;-72
2023/01/29 09:23:07;;;;;;;32.13;18.98;;;;;;;3.33;100.00;102812.06;5112796;28;20402;-72
2023/01/29 09:25:33;;;;;;;29.65;18.85;;;;;;;3.35;100.00;102812.03;5114365;28;20031;-73
2023/01/29 09:27:58;;;;;;;31.85;18.90;;;;;;;3.33;100.00;102801.53;5113411;28;20433;-72
2023/01/29 09:30:24;;;;;;;30.30;19.05;;;;;;;3.40;100.00;102807.47;5113398;28;20028;-73
2023/01/29 09:32:49;;;;;;;30.83;18.95;;;;;;;3.38;100.00;102805.81;5113219;28;20492;-71
2023/01/29 09:35:15;;;;;;;32.67;20.80;;;;;;;3.40;100.00;102811.91;5113865;28;20508;-71
2023/01/29 09:37:40;;;;;;;28.95;18.83;;;;;;;3.44;100.00;102814.38;5113526;28;20027;-75
2023/01/29 09:40:16;;;;;;;33.53;18.95;;;;;;;3.46;100.00;102809.97;5113635;28;20463;-73
2023/01/29 09:42:54;;;;;;;35.42;19.23;;;;;;;3.46;100.00;102814.34;5113492;28;20031;-72
2023/01/29 09:45:25;;;;;;;30.50;19.48;;;;;;;3.44;100.00;102809.13;5113051;28;20108;-72
2023/01/29 09:47:56;;;;;;;34.65;20.85;;;;;;;3.47;100.00;102809.03;5113602;28;20058;-73
2023/01/29 09:50:31;;;;;;;31.70;20.20;;;;;;;3.49;100.00;102803.72;5112730;28;20376;-72
2023/01/29 09:53:21;;;;;;;33.00;19.77;;;;;;;3.52;100.00;102812.41;5113560;28;20031;-73
2023/01/29 09:56:00;;;;;;;27.63;18.38;;;;;;;3.57;100.00;102806.13;5113776;28;20063;-73
2023/01/29 09:58:32;;;;;;;32.33;19.63;;;;;;;3.59;100.00;102804.31;5114118;28;20027;-73
2023/01/29 10:01:04;;;;;;;33.80;19.92;;;;;;;3.63;100.00;102801.56;5113400;28;20028;-77
2023/01/29 10:03:54;;;;;;;37.03;19.45;;;;;;;3.67;100.00;102794.41;5113524;28;20054;-75
2023/01/29 10:06:22;;;;;;;29.20;18.85;;;;;;;3.66;100.00;102790.09;5113895;28;20038;-74
2023/01/29 10:09:22;;;;;;;36.88;20.27;;;;;;;3.67;100.00;102792.66;5113202;28;20104;-72
2023/01/29 10:11:58;;;;;;;34.40;19.55;;;;;;;3.67;100.00;102791.78;5114196;28;20038;-75
2023/01/29 10:14:54;;;;;;;31.63;20.10;;;;;;;3.69;100.00;102798.72;5114732;28;20420;-75
2023/01/29 10:17:25;;;;;;;32.50;19.75;;;;;;;3.69;100.00;102788.19;5114542;28;20034;-74
2023/01/29 10:20:09;;;;;;;29.55;18.65;;;;;;;3.68;100.00;102788.25;5115222;28;20066;-78
2023/01/29 10:23:10;;;;;;;28.95;19.05;;;;;;;3.67;100.00;102787.41;5113935;28;20065;-79
2023/01/29 10:25:39;;;;;;;32.50;20.35;;;;;;;3.62;100.00;102791.94;5099360;28;20046;-77
2023/01/29 10:28:19;;;;;;;31.65;19.45;;;;;;;3.58;100.00;102787.66;5114067;28;20036;-78
2023/01/29 10:30:48;;;;;;;33.10;19.52;;;;;;;3.56;100.00;102786.84;5114333;28;20051;-81
2023/01/29 10:33:32;;;;;;;36.45;19.63;;;;;;;3.47;100.00;102776.59;5114285;28;20063;-78
2023/01/29 10:36:05;;;;;;;31.88;19.65;;;;;;;3.42;100.00;102771.47;5114974;28;20024;-76
2023/01/29 10:38:38;;;;;;;33.13;19.52;;;;;;;3.41;100.00;102777.63;5115352;28;20056;-79
2023/01/29 10:41:25;;;;;;;29.65;19.73;;;;;;;3.39;100.00;102766.31;5115539;28;20060;-78
2023/01/29 10:43:56;;;;;;;29.70;20.25;;;;;;;3.38;100.00;102763.72;5117985;28;20032;-79
2023/01/29 10:46:37;;;;;;;33.67;20.13;;;;;;;3.37;100.00;102757.56;5120520;28;20092;-78
2023/01/29 10:49:37;;;;;;;31.83;20.07;;;;;;;3.33;100.00;102745.44;5118299;28;20066;-77
2023/01/29 10:52:34;;;;;;;32.28;19.88;;;;;;;3.38;100.00;102750.56;5115583;28;20035;-78
2023/01/29 10:55:14;;;;;;;28.00;19.17;;;;;;;3.44;100.00;102745.09;5113902;28;20024;-77
2023/01/29 10:58:11;;;;;;;32.42;20.13;;;;;;;3.47;100.00;102745.03;5112993;28;20023;-77
2023/01/29 11:00:39;;;;;;;37.03;20.35;;;;;;;3.50;100.00;102737.88;5113866;28;20115;-76
2023/01/29 11:03:20;;;;;;;31.40;19.50;;;;;;;3.56;100.00;102728.09;5113068;28;20047;-77
2023/01/29 11:06:04;;;;;;;30.73;19.38;;;;;;;3.60;100.00;102734.97;5113203;28;20096;-76
2023/01/29 11:08:59;;;;;;;32.25;20.13;;;;;;;3.64;100.00;102734.84;5113130;28;20527;-75
2023/01/29 11:11:40;;;;;;;32.53;20.15;;;;;;;3.68;100.00;102740.88;5113000;28;20023;-79
2023/01/29 11:14:13;;;;;;;31.15;19.63;;;;;;;3.64;100.00;102736.59;5114624;28;20049;-77
2023/01/29 11:16:45;;;;;;;32.85;20.35;;;;;;;3.65;100.00;102733.91;5116768;28;20112;-78
2023/01/29 11:19:11;;;;;;;36.97;21.50;;;;;;;3.63;100.00;102733.09;5116513;28;20039;-82
2023/01/29 11:22:16;;;;;;;37.20;20.90;;;;;;;3.64;100.00;102718.16;5117034;28;20036;-76
2023/01/29 11:24:42;;;;;;;29.15;19.67;;;;;;;3.71;100.00;102725.81;5033413;28;20077;-78
2023/01/29 11:27:27;;;;;;;32.33;20.65;;;;;;;3.72;100.00;102718.78;5102094;28;20341;-78
2023/01/29 11:29:56;;;;;;;33.40;20.85;;;;;;;3.72;100.00;102713.53;5116545;28;20050;-77
2023/01/29 11:32:29;;;;;;;36.90;21.02;;;;;;;3.75;100.00;102715.19;5117659;28;20349;-81
2023/01/29 11:35:11;;;;;;;30.60;19.63;;;;;;;3.74;100.00;102701.16;5116961;28;20024;-85
2023/01/29 11:37:39;;;;;;;32.63;19.88;;;;;;;3.77;100.00;102708.13;5115238;28;20084;-78
2023/01/29 11:40:22;;;;;;;33.45;20.83;;;;;;;3.83;100.00;102700.00;5116507;28;20023;-78
2023/01/29 11:42:49;;;;;;;34.13;20.10;;;;;;;3.76;100.00;102694.06;5116867;28;20031;-76
2023/01/29 11:45:30;;;;;;;32.92;20.42;;;;;;;3.77;100.00;102695.81;5116377;28;20051;-76
2023/01/29 11:47:57;;;;;;;;;;;;;;;3.77;100.00;102689.69;5115742;28;20023;-76
2023/01/29 11:50:25;;;;;;;31.77;19.52;;;;;;;3.79;100.00;102679.94;5116144;28;19977;-75
2023/01/29 11:52:51;;;;;;;35.17;20.58;;;;;;;3.79;100.00;102687.84;5115901;27;20031;-76
2023/01/29 11:55:29;;;;;;;37.35;22.02;;;;;;;3.77;100.00;102679.16;5115732;28;20468;-75
2023/01/29 11:58:17;;;;;;;36.38;20.30;;;;;;;3.80;100.00;102679.91;5115814;28;20039;-78